Time;durP1;ratioP1;P1;durP2;ratioP2;P2;SDS_P1;SDS_P2;PMS_P1;PMS_P2;Temp;Humidity;BMP_temperature;BMP_pressure;BME280_temperature;BME280_humidity;BME280_pressure;Samples;Min_cycle;Max_cycle;Signal;HPM_P1;HPM_P2
2021/07/05 00:01:45;;;;;;;0.80;0.80;;;16.70;99.90;;;;;;5038838;28;20229;-76
2021/07/05 00:04:11;;;;;;;0.88;0.57;;;16.60;99.90;;;;;;5051476;28;20198;-76
2021/07/05 00:06:37;;;;;;;0.40;0.40;;;16.60;99.90;;;;;;5039843;28;20201;-76
2021/07/05 00:09:05;;;;;;;0.77;0.75;;;16.50;99.90;;;;;;5035507;28;20198;-76
2021/07/05 00:11:31;;;;;;;1.27;0.50;;;16.40;99.90;;;;;;5039194;28;20289;-76
2021/07/05 00:13:56;;;;;;;0.85;0.85;;;16.40;99.90;;;;;;5037319;28;20261;-76
2021/07/05 00:16:22;;;;;;;0.60;0.60;;;16.30;99.90;;;;;;5037224;28;20204;-75
2021/07/05 00:18:48;;;;;;;1.27;0.63;;;16.20;99.90;;;;;;5036704;28;20629;-76
2021/07/05 00:21:14;;;;;;;0.82;0.80;;;16.10;99.90;;;;;;5039304;28;20205;-76
2021/07/05 00:23:39;;;;;;;0.40;0.40;;;16.10;99.90;;;;;;5040289;28;20229;-75
2021/07/05 00:26:05;;;;;;;0.52;0.52;;;16.00;99.90;;;;;;5043269;28;20186;-76
2021/07/05 00:28:31;;;;;;;0.70;0.70;;;15.90;99.90;;;;;;5042261;28;20189;-76
2021/07/05 00:30:56;;;;;;;0.47;0.47;;;15.90;99.90;;;;;;5043779;28;20225;-75
2021/07/05 00:33:22;;;;;;;0.52;0.52;;;15.80;99.90;;;;;;5038153;28;20194;-76
2021/07/05 00:35:48;;;;;;;0.68;0.68;;;15.70;99.90;;;;;;5043647;28;20739;-76
2021/07/05 00:38:14;;;;;;;0.40;0.40;;;15.70;99.90;;;;;;5042372;28;20205;-75
2021/07/05 00:40:41;;;;;;;0.52;0.52;;;15.60;99.90;;;;;;5041462;28;20194;-76
2021/07/05 00:43:06;;;;;;;0.90;0.80;;;15.60;99.90;;;;;;5016339;28;20202;-76
2021/07/05 00:45:33;;;;;;;0.40;0.40;;;15.50;99.90;;;;;;5025858;28;20201;-76
2021/07/05 00:47:59;;;;;;;0.40;0.40;;;15.50;99.90;;;;;;5027264;28;20644;-76
2021/07/05 00:50:27;;;;;;;1.42;0.85;;;15.50;99.90;;;;;;5042949;28;20331;-76
2021/07/05 00:52:55;;;;;;;1.23;1.13;;;15.40;99.90;;;;;;5042570;28;20209;-76
2021/07/05 00:55:21;;;;;;;0.50;0.50;;;15.40;99.90;;;;;;5023116;28;20217;-76
2021/07/05 00:57:47;;;;;;;2.75;1.10;;;15.40;99.90;;;;;;5042703;28;20194;-76
2021/07/05 01:00:16;;;;;;;0.40;0.40;;;15.30;99.90;;;;;;5041583;28;20197;-76
2021/07/05 01:02:42;;;;;;;1.20;1.10;;;15.30;99.90;;;;;;5045433;28;20200;-77
2021/07/05 01:05:09;;;;;;;0.77;0.77;;;15.30;99.90;;;;;;5051622;22;20707;-70
2021/07/05 01:07:35;;;;;;;0.50;0.50;;;15.20;99.90;;;;;;5082869;28;20692;-70
2021/07/05 01:10:05;;;;;;;1.40;0.73;;;15.10;99.90;;;;;;5084435;28;20204;-70
2021/07/05 01:12:31;;;;;;;0.55;0.55;;;15.10;99.90;;;;;;5065710;28;20241;-69
2021/07/05 01:14:57;;;;;;;0.73;0.73;;;15.10;99.90;;;;;;5080793;28;20180;-70
2021/07/05 01:17:23;;;;;;;0.52;0.52;;;15.00;99.90;;;;;;5081821;28;21007;-69
2021/07/05 01:19:50;;;;;;;0.60;0.60;;;15.00;99.90;;;;;;5081738;28;20546;-70
2021/07/05 01:22:17;;;;;;;0.70;0.70;;;14.90;99.90;;;;;;5085695;28;20204;-69
2021/07/05 01:24:45;;;;;;;0.88;0.68;;;14.90;99.90;;;;;;5080960;28;20196;-69
2021/07/05 01:27:11;;;;;;;0.40;0.40;;;14.80;99.90;;;;;;5085125;28;20274;-70
2021/07/05 01:29:39;;;;;;;0.43;0.43;;;14.80;99.90;;;;;;5083593;28;20278;-69
2021/07/05 01:32:06;;;;;;;0.70;0.70;;;14.70;99.90;;;;;;5065402;28;20196;-69
2021/07/05 01:34:32;;;;;;;0.85;0.82;;;14.70;99.90;;;;;;5083632;28;20200;-69
2021/07/05 01:36:57;;;;;;;1.83;1.05;;;14.70;99.90;;;;;;5085543;28;20203;-69
2021/07/05 01:39:23;;;;;;;0.55;0.55;;;14.60;99.90;;;;;;5083577;28;20192;-69
2021/07/05 01:41:50;;;;;;;0.60;0.60;;;14.60;99.90;;;;;;5082534;28;20208;-70
2021/07/05 01:44:15;;;;;;;0.50;0.50;;;14.50;99.90;;;;;;5082784;28;20677;-69
2021/07/05 01:46:42;;;;;;;0.70;0.63;;;14.50;99.90;;;;;;5083053;28;20207;-69
2021/07/05 01:49:08;;;;;;;0.50;0.50;;;14.50;99.90;;;;;;5082087;28;20678;-69
2021/07/05 01:51:34;;;;;;;0.70;0.70;;;14.50;99.90;;;;;;5081514;28;20555;-69
2021/07/05 01:54:00;;;;;;;0.40;0.40;;;14.40;99.90;;;;;;5080704;28;20203;-70
2021/07/05 01:56:26;;;;;;;0.50;0.50;;;14.40;99.90;;;;;;5061623;28;20658;-69
2021/07/05 01:58:52;;;;;;;1.48;1.20;;;14.40;99.90;;;;;;5082496;28;20195;-69
2021/07/05 02:01:18;;;;;;;1.00;0.82;;;14.40;99.90;;;;;;5079369;28;20204;-71
2021/07/05 02:03:44;;;;;;;0.90;0.75;;;14.30;99.90;;;;;;5065396;28;20196;-69
2021/07/05 02:06:10;;;;;;;0.60;0.60;;;14.30;99.90;;;;;;5083337;28;20211;-69
2021/07/05 02:08:36;;;;;;;11.18;1.10;;;14.30;99.90;;;;;;5082227;28;20666;-70
2021/07/05 02:11:02;;;;;;;0.68;0.68;;;14.30;99.90;;;;;;5082594;28;20215;-68
2021/07/05 02:13:30;;;;;;;0.40;0.40;;;14.30;99.90;;;;;;5084252;28;20180;-69
2021/07/05 02:15:59;;;;;;;1.55;0.75;;;14.30;99.90;;;;;;5064446;28;20283;-69
2021/07/05 02:18:26;;;;;;;0.50;0.50;;;14.30;99.90;;;;;;5062096;28;20200;-68
2021/07/05 02:20:53;;;;;;;0.80;0.80;;;14.30;99.90;;;;;;5081029;28;20203;-69
2021/07/05 02:23:20;;;;;;;0.50;0.50;;;14.40;99.90;;;;;;5082903;28;20203;-69
2021/07/05 02:25:47;;;;;;;0.60;0.60;;;14.40;99.90;;;;;;5081522;28;20554;-69
2021/07/05 02:28:17;;;;;;;0.45;0.45;;;14.40;99.90;;;;;;5082201;28;20193;-69
2021/07/05 02:30:45;;;;;;;1.23;1.17;;;14.40;99.90;;;;;;5081583;28;20199;-69
2021/07/05 02:33:11;;;;;;;0.98;0.93;;;14.40;99.90;;;;;;5082824;28;20210;-69
2021/07/05 02:35:38;;;;;;;0.50;0.50;;;14.50;99.90;;;;;;5041386;28;20208;-70
2021/07/05 02:38:06;;;;;;;0.50;0.50;;;14.50;99.90;;;;;;5080133;28;20183;-70
2021/07/05 02:40:35;;;;;;;1.17;0.75;;;14.60;99.90;;;;;;5080186;28;20196;-70
2021/07/05 02:43:02;;;;;;;0.85;0.68;;;14.60;99.90;;;;;;5079479;28;20229;-69
2021/07/05 02:45:29;;;;;;;0.50;0.50;;;14.70;99.90;;;;;;5081043;28;20696;-69
2021/07/05 02:47:58;;;;;;;0.40;0.40;;;14.70;99.90;;;;;;5082738;28;20253;-69
2021/07/05 02:50:24;;;;;;;1.27;0.80;;;14.80;99.90;;;;;;5077101;28;20563;-69
2021/07/05 02:52:51;;;;;;;0.40;0.40;;;15.00;99.90;;;;;;5066882;28;20808;-70
2021/07/05 02:55:17;;;;;;;1.67;1.45;;;15.10;99.90;;;;;;5081423;28;20704;-69
2021/07/05 02:57:44;;;;;;;0.43;0.43;;;15.30;99.90;;;;;;5060657;28;20208;-70
2021/07/05 03:00:12;;;;;;;0.82;0.82;;;15.40;99.90;;;;;;5081467;28;20187;-70
2021/07/05 03:02:38;;;;;;;0.70;0.70;;;15.60;99.90;;;;;;5037226;28;20680;-69
2021/07/05 03:05:07;;;;;;;0.40;0.40;;;15.80;99.90;;;;;;5061319;28;20253;-69
2021/07/05 03:07:32;;;;;;;1.30;0.65;;;15.90;99.90;;;;;;5082590;28;20759;-69
2021/07/05 03:09:58;;;;;;;0.50;0.50;;;16.00;99.90;;;;;;5080945;28;20207;-70
2021/07/05 03:12:24;;;;;;;0.40;0.40;;;16.10;99.90;;;;;;5062682;28;20584;-69
2021/07/05 03:14:50;;;;;;;0.50;0.50;;;16.10;99.90;;;;;;5082458;28;20663;-70
2021/07/05 03:17:15;;;;;;;0.70;0.70;;;16.20;99.90;;;;;;5080722;28;20215;-71
2021/07/05 03:19:41;;;;;;;0.70;0.50;;;16.30;99.90;;;;;;5081282;28;20568;-69
2021/07/05 03:22:08;;;;;;;0.43;0.43;;;16.40;99.90;;;;;;5080408;28;20283;-69
2021/07/05 03:24:33;;;;;;;0.60;0.60;;;16.50;99.90;;;;;;5078474;28;20678;-71
2021/07/05 03:26:59;;;;;;;0.30;0.30;;;16.60;99.90;;;;;;5078491;28;20200;-69
2021/07/05 03:29:25;;;;;;;0.63;0.63;;;16.70;99.90;;;;;;5079866;28;20208;-70
2021/07/05 03:31:51;;;;;;;0.55;0.55;;;16.80;99.90;;;;;;5082444;28;20192;-70
2021/07/05 03:34:16;;;;;;;0.30;0.30;;;16.80;99.90;;;;;;5081670;28;20203;-70
2021/07/05 03:36:43;;;;;;;1.25;0.80;;;16.90;99.90;;;;;;5082329;28;20203;-69
2021/07/05 03:39:08;;;;;;;2.20;1.70;;;17.00;99.90;;;;;;5082883;28;20625;-70
2021/07/05 03:41:34;;;;;;;0.82;0.65;;;17.10;99.90;;;;;;5083074;28;20427;-69
2021/07/05 03:44:00;;;;;;;0.85;0.70;;;17.30;99.90;;;;;;5081208;28;20791;-69
2021/07/05 03:46:25;;;;;;;0.63;0.63;;;17.40;99.90;;;;;;5083427;28;20203;-70
2021/07/05 03:48:51;;;;;;;0.30;0.30;;;17.50;99.90;;;;;;5083061;28;20210;-70
2021/07/05 03:51:17;;;;;;;0.40;0.40;;;17.60;99.90;;;;;;5079784;28;20223;-71
2021/07/05 03:53:43;;;;;;;0.98;0.60;;;17.70;99.90;;;;;;5080498;28;20771;-69
2021/07/05 03:56:09;;;;;;;0.98;0.68;;;17.70;99.90;;;;;;5087103;28;20196;-70
2021/07/05 03:58:34;;;;;;;1.10;0.60;;;17.80;99.90;;;;;;5067020;28;20196;-69
2021/07/05 04:01:00;;;;;;;0.40;0.40;;;17.80;99.90;;;;;;5085023;28;20261;-70
2021/07/05 04:03:30;;;;;;;0.40;0.40;;;17.90;99.90;;;;;;5084606;28;20188;-70
2021/07/05 04:05:58;;;;;;;0.40;0.40;;;17.90;99.90;;;;;;5082775;28;20243;-69
2021/07/05 04:08:26;;;;;;;1.23;0.68;;;18.00;99.90;;;;;;5086686;28;20672;-68
2021/07/05 04:10:52;;;;;;;2.70;0.50;;;18.00;99.90;;;;;;5082293;28;20854;-69
2021/07/05 04:13:18;;;;;;;0.52;0.52;;;18.00;99.90;;;;;;5086233;28;20290;-69
2021/07/05 04:15:44;;;;;;;0.63;0.63;;;18.00;99.90;;;;;;5083859;28;20196;-70
2021/07/05 04:18:09;;;;;;;0.40;0.40;;;18.10;99.90;;;;;;5087410;28;20283;-69
2021/07/05 04:20:36;;;;;;;0.40;0.40;;;18.10;99.90;;;;;;5085255;28;20207;-69
2021/07/05 04:23:01;;;;;;;0.30;0.30;;;18.10;99.90;;;;;;5065812;28;20195;-70
2021/07/05 04:25:27;;;;;;;0.77;0.60;;;18.20;99.90;;;;;;5084465;28;21040;-69
2021/07/05 04:27:54;;;;;;;0.43;0.43;;;18.30;99.90;;;;;;5085985;28;20200;-70
2021/07/05 04:30:20;;;;;;;0.40;0.40;;;18.30;99.90;;;;;;5068941;28;20200;-70
2021/07/05 04:32:47;;;;;;;0.98;0.60;;;18.30;99.90;;;;;;5065129;28;20201;-70
2021/07/05 04:35:17;;;;;;;0.77;0.77;;;18.40;99.90;;;;;;5056089;28;20216;-70
2021/07/05 04:37:44;;;;;;;0.50;0.50;;;18.50;99.90;;;;;;5038300;28;22208;-69
2021/07/05 04:40:14;;;;;;;1.05;0.75;;;18.60;99.90;;;;;;5058886;28;20200;-69
2021/07/05 04:42:40;;;;;;;0.32;0.32;;;18.60;99.90;;;;;;5084674;28;20192;-70
2021/07/05 04:45:08;;;;;;;0.30;0.30;;;18.70;99.90;;;;;;5066283;28;20208;-71
2021/07/05 04:47:34;;;;;;;0.50;0.50;;;18.70;99.90;;;;;;5077893;28;20203;-70
2021/07/05 04:49:59;;;;;;;0.30;0.30;;;18.70;99.90;;;;;;5081400;28;20603;-71
2021/07/05 04:52:25;;;;;;;0.80;0.77;;;18.80;99.90;;;;;;5083458;28;20200;-71
2021/07/05 04:54:51;;;;;;;0.32;0.32;;;18.90;99.90;;;;;;5082443;28;20199;-71
2021/07/05 04:57:17;;;;;;;0.63;0.60;;;19.00;99.90;;;;;;5079282;28;20312;-70
2021/07/05 04:59:43;;;;;;;0.40;0.40;;;19.00;99.90;;;;;;5084474;28;20267;-70
2021/07/05 05:02:09;;;;;;;0.70;0.70;;;19.00;99.90;;;;;;5073379;28;20200;-70
2021/07/05 05:04:34;;;;;;;1.05;0.73;;;19.10;99.90;;;;;;5082522;28;20232;-70
2021/07/05 05:07:00;;;;;;;1.15;1.05;;;19.30;99.90;;;;;;5079607;28;20196;-70
2021/07/05 05:09:26;;;;;;;0.93;0.70;;;19.30;99.90;;;;;;5079569;28;20875;-70
2021/07/05 05:11:52;;;;;;;0.30;0.30;;;19.40;99.90;;;;;;5085374;28;20244;-71
2021/07/05 05:14:19;;;;;;;3.35;1.20;;;19.40;99.90;;;;;;5082676;28;20204;-69
2021/07/05 05:16:46;;;;;;;0.40;0.40;;;19.40;99.90;;;;;;5083315;28;20192;-69
2021/07/05 05:19:12;;;;;;;0.50;0.50;;;19.60;99.90;;;;;;5084335;28;20208;-70
2021/07/05 05:21:38;;;;;;;0.85;0.85;;;19.80;99.90;;;;;;5041819;28;20220;-69
2021/07/05 05:24:06;;;;;;;0.50;0.50;;;19.90;99.90;;;;;;5065858;28;20677;-69
2021/07/05 05:26:33;;;;;;;0.65;0.65;;;20.10;99.90;;;;;;5066712;28;20200;-70
2021/07/05 05:28:59;;;;;;;0.90;0.60;;;20.20;99.90;;;;;;5087240;28;20196;-70
2021/07/05 05:31:24;;;;;;;0.65;0.57;;;20.20;99.90;;;;;;5077461;28;20307;-69
2021/07/05 05:33:50;;;;;;;0.68;0.68;;;20.30;99.90;;;;;;5081103;28;20192;-69
2021/07/05 05:36:16;;;;;;;0.43;0.35;;;20.40;99.90;;;;;;5084263;28;20195;-70
2021/07/05 05:38:46;;;;;;;0.30;0.30;;;20.60;99.90;;;;;;5084368;28;20666;-70
2021/07/05 05:41:12;;;;;;;0.40;0.40;;;20.70;99.90;;;;;;5085123;28;20200;-70
2021/07/05 05:43:38;;;;;;;0.68;0.60;;;20.70;99.90;;;;;;5088073;28;20666;-70
2021/07/05 05:46:04;;;;;;;0.65;0.65;;;21.00;99.90;;;;;;5085270;28;20199;-70
2021/07/05 05:48:30;;;;;;;0.40;0.40;;;21.20;99.90;;;;;;5085020;28;20215;-70
2021/07/05 05:50:57;;;;;;;0.30;0.30;;;21.40;99.90;;;;;;5086390;28;20559;-69
2021/07/05 05:53:23;;;;;;;0.85;0.60;;;21.40;99.90;;;;;;5087745;28;20190;-70
2021/07/05 05:55:49;;;;;;;0.52;0.50;;;21.30;99.90;;;;;;5083139;28;20561;-70
2021/07/05 05:58:15;;;;;;;0.38;0.38;;;21.10;99.90;;;;;;5088174;28;20192;-69
2021/07/05 06:00:42;;;;;;;0.50;0.50;;;21.10;99.90;;;;;;5055076;28;20272;-70
2021/07/05 06:03:08;;;;;;;18.50;0.85;;;21.10;99.90;;;;;;5085310;28;20188;-69
2021/07/05 06:05:34;;;;;;;0.57;0.57;;;21.00;99.90;;;;;;5058880;28;20228;-70
2021/07/05 06:08:00;;;;;;;0.30;0.30;;;21.00;99.90;;;;;;5087893;28;20189;-70
2021/07/05 06:10:26;;;;;;;0.30;0.30;;;21.00;99.90;;;;;;5081220;28;20204;-70
2021/07/05 06:12:53;;;;;;;0.40;0.40;;;21.00;99.90;;;;;;5086910;28;20276;-69
2021/07/05 06:15:20;;;;;;;0.95;0.77;;;21.20;99.90;;;;;;5086376;28;20219;-69
2021/07/05 06:17:46;;;;;;;0.63;0.60;;;21.30;99.90;;;;;;5083055;28;20267;-70
2021/07/05 06:20:13;;;;;;;0.88;0.88;;;21.30;99.90;;;;;;5085065;28;20227;-70
2021/07/05 06:22:47;;;;;;;0.68;0.45;;;21.40;99.90;;;;;;5060498;28;20606;-69
2021/07/05 06:25:13;;;;;;;0.57;0.57;;;21.40;99.90;;;;;;5086072;28;20544;-69
2021/07/05 06:27:40;;;;;;;0.57;0.47;;;21.50;99.90;;;;;;5077285;28;20204;-70
2021/07/05 06:30:06;;;;;;;0.30;0.30;;;21.60;99.90;;;;;;5083198;28;20212;-71
2021/07/05 06:32:32;;;;;;;2.20;1.00;;;21.80;99.90;;;;;;5063873;28;20200;-71
2021/07/05 06:34:58;;;;;;;0.20;0.20;;;21.90;99.90;;;;;;5080032;28;20196;-71
2021/07/05 06:37:23;;;;;;;0.40;0.40;;;21.80;99.90;;;;;;5084631;28;20192;-69
2021/07/05 06:39:49;;;;;;;0.57;0.43;;;21.90;99.90;;;;;;5082827;28;20208;-70
2021/07/05 06:42:15;;;;;;;0.38;0.38;;;22.00;99.90;;;;;;5082225;28;20200;-70
2021/07/05 06:44:41;;;;;;;0.77;0.77;;;21.90;99.90;;;;;;5083792;28;20215;-69
2021/07/05 06:47:06;;;;;;;0.40;0.40;;;21.90;99.90;;;;;;5058845;28;20212;-71
2021/07/05 06:49:32;;;;;;;1.60;1.02;;;21.80;99.90;;;;;;5075218;28;20229;-70
2021/07/05 06:51:58;;;;;;;0.30;0.30;;;21.70;99.90;;;;;;5080538;28;20276;-69
2021/07/05 06:54:24;;;;;;;0.88;0.73;;;21.70;99.90;;;;;;5082587;28;20657;-69
2021/07/05 06:56:50;;;;;;;0.30;0.30;;;21.60;99.90;;;;;;5086919;28;20568;-69
2021/07/05 06:59:15;;;;;;;0.35;0.35;;;21.40;99.90;;;;;;5060248;28;20196;-69
2021/07/05 07:01:41;;;;;;;1.50;0.50;;;21.30;99.90;;;;;;5060755;28;20306;-69
2021/07/05 07:04:07;;;;;;;0.73;0.65;;;21.30;99.90;;;;;;5065973;28;20220;-71
2021/07/05 07:06:33;;;;;;;0.50;0.50;;;21.30;99.90;;;;;;5054511;28;20981;-69
2021/07/05 07:08:59;;;;;;;0.60;0.60;;;21.30;99.90;;;;;;5082996;28;20200;-69
2021/07/05 07:11:25;;;;;;;0.80;0.75;;;21.20;99.90;;;;;;5063551;28;20204;-70
2021/07/05 07:13:51;;;;;;;0.50;0.50;;;21.10;99.90;;;;;;5085171;28;20254;-69
2021/07/05 07:16:18;;;;;;;0.38;0.35;;;21.00;99.90;;;;;;5057019;28;20749;-69
2021/07/05 07:21:50;;;;;;;1.15;0.57;;;21.00;99.90;;;;;;5023795;28;20209;-69
2021/07/05 07:24:17;;;;;;;0.50;0.50;;;20.90;99.90;;;;;;5027313;28;20298;-69
2021/07/05 07:26:43;;;;;;;0.47;0.45;;;21.00;99.90;;;;;;5022765;28;20229;-69
2021/07/05 07:29:09;;;;;;;1.65;0.82;;;21.00;99.90;;;;;;5022358;28;20206;-70
2021/07/05 07:31:35;;;;;;;0.55;0.40;;;20.90;99.90;;;;;;5023062;28;20210;-69
2021/07/05 07:34:01;;;;;;;0.30;0.30;;;21.00;99.90;;;;;;5019942;28;20198;-70
2021/07/05 07:36:26;;;;;;;0.50;0.50;;;20.90;99.90;;;;;;5023145;28;20749;-70
2021/07/05 07:38:56;;;;;;;0.52;0.32;;;20.80;99.90;;;;;;5026933;28;20252;-70
2021/07/05 07:41:23;;;;;;;0.43;0.43;;;20.70;99.90;;;;;;5022776;28;20244;-70
2021/07/05 07:43:49;;;;;;;0.57;0.57;;;20.60;99.90;;;;;;5027288;28;20679;-70
2021/07/05 07:46:15;;;;;;;0.50;0.50;;;20.60;99.90;;;;;;5022700;28;20235;-69
2021/07/05 07:48:41;;;;;;;0.50;0.30;;;20.60;99.90;;;;;;5022763;28;20222;-69
2021/07/05 07:51:07;;;;;;;0.25;0.25;;;20.50;99.90;;;;;;5023616;28;20209;-70
2021/07/05 07:53:32;;;;;;;0.43;0.43;;;20.50;99.90;;;;;;5022972;28;20232;-69
2021/07/05 07:55:58;;;;;;;0.52;0.52;;;20.50;99.90;;;;;;5050977;28;20274;-70
2021/07/05 07:58:25;;;;;;;0.60;0.32;;;20.50;99.90;;;;;;5081944;28;20693;-70
2021/07/05 08:00:51;;;;;;;0.57;0.57;;;20.40;99.90;;;;;;5083582;28;20199;-69
2021/07/05 08:03:17;;;;;;;0.20;0.20;;;20.50;99.90;;;;;;5084927;28;20204;-69
2021/07/05 08:05:43;;;;;;;1.40;0.63;;;20.50;99.90;;;;;;5076184;28;20262;-69
2021/07/05 08:08:08;;;;;;;0.30;0.30;;;20.60;99.90;;;;;;5073995;28;20220;-70
2021/07/05 08:10:34;;;;;;;0.30;0.30;;;20.70;99.90;;;;;;5057734;28;20215;-70
2021/07/05 08:13:02;;;;;;;1.10;0.65;;;20.80;99.90;;;;;;5080461;28;20271;-69
2021/07/05 08:15:29;;;;;;;0.60;0.60;;;20.70;99.90;;;;;;5081440;28;20229;-69
2021/07/05 08:17:55;;;;;;;1.10;1.00;;;20.70;99.90;;;;;;5062534;28;20196;-69
2021/07/05 08:20:21;;;;;;;0.32;0.32;;;20.70;99.90;;;;;;5082473;28;20189;-69
2021/07/05 08:22:51;;;;;;;0.95;0.60;;;20.60;99.90;;;;;;5082362;28;20200;-69
2021/07/05 08:25:17;;;;;;;0.73;0.73;;;20.40;99.90;;;;;;5072667;28;20193;-70
2021/07/05 08:27:43;;;;;;;0.50;0.50;;;20.10;99.90;;;;;;5083491;28;20271;-70
2021/07/05 08:30:09;;;;;;;0.82;0.68;;;19.90;99.90;;;;;;5071950;28;20604;-70
2021/07/05 08:32:35;;;;;;;0.45;0.45;;;19.80;99.90;;;;;;5059534;28;20192;-69
2021/07/05 08:35:03;;;;;;;0.43;0.43;;;19.70;99.90;;;;;;5064084;28;20196;-71
2021/07/05 08:37:29;;;;;;;0.73;0.70;;;19.70;99.90;;;;;;5080606;28;20287;-70
2021/07/05 08:39:54;;;;;;;1.15;1.05;;;19.60;99.90;;;;;;5081133;28;20284;-70
2021/07/05 08:42:25;;;;;;;0.93;0.70;;;19.70;99.90;;;;;;5087549;28;20231;-70
2021/07/05 08:44:51;;;;;;;0.52;0.38;;;19.80;99.90;;;;;;5078753;28;20192;-69
2021/07/05 08:47:18;;;;;;;0.40;0.40;;;19.80;99.90;;;;;;5087232;28;20196;-69
2021/07/05 08:49:45;;;;;;;0.43;0.43;;;20.00;99.90;;;;;;5083533;28;20696;-70
2021/07/05 08:52:11;;;;;;;0.57;0.57;;;20.30;99.90;;;;;;5069590;28;20245;-70
2021/07/05 08:54:36;;;;;;;0.40;0.40;;;20.60;99.90;;;;;;5077821;28;20189;-70
2021/07/05 08:57:04;;;;;;;0.75;0.68;;;20.80;99.90;;;;;;5083061;28;20189;-72
2021/07/05 08:59:35;;;;;;;0.30;0.30;;;21.10;99.90;;;;;;5080155;28;20197;-70
2021/07/05 09:02:01;;;;;;;0.30;0.30;;;21.30;99.90;;;;;;5076285;28;20208;-70
2021/07/05 09:04:27;;;;;;;0.55;0.55;;;21.40;99.90;;;;;;5082806;28;20228;-69
2021/07/05 09:07:12;;;;;;;0.32;0.32;;;21.70;99.90;;;;;;5086314;28;20307;-70
2021/07/05 09:09:38;;;;;;;1.92;1.27;;;22.30;99.90;;;;;;5084821;28;20200;-71
2021/07/05 09:12:06;;;;;;;0.43;0.43;;;22.80;99.90;;;;;;5082896;28;20209;-69
2021/07/05 09:14:34;;;;;;;0.55;0.32;;;23.00;99.90;;;;;;5085832;28;20228;-70
2021/07/05 09:17:07;;;;;;;1.42;0.88;;;23.20;99.90;;;;;;5081967;28;20832;-71
2021/07/05 09:19:33;;;;;;;0.32;0.32;;;23.50;99.90;;;;;;5082312;28;20204;-70
2021/07/05 09:22:02;;;;;;;0.28;0.28;;;23.50;99.90;;;;;;5081903;28;20196;-70
2021/07/05 09:24:37;;;;;;;1.27;0.70;;;23.30;99.90;;;;;;5082651;28;20233;-70
2021/07/05 09:27:19;;;;;;;0.25;0.25;;;23.10;99.90;;;;;;5083433;28;20199;-70
2021/07/05 09:29:46;;;;;;;0.30;0.28;;;22.70;99.90;;;;;;5085166;28;20204;-70
2021/07/05 09:32:21;;;;;;;0.30;0.30;;;22.50;99.90;;;;;;5084516;28;20199;-70
2021/07/05 09:34:47;;;;;;;0.38;0.38;;;22.60;99.90;;;;;;5079825;28;20513;-70
2021/07/05 09:37:14;;;;;;;0.50;0.50;;;22.80;99.90;;;;;;5084595;28;20196;-71
2021/07/05 09:39:40;;;;;;;0.90;0.60;;;23.20;99.90;;;;;;5078821;28;20201;-71
2021/07/05 09:42:12;;;;;;;0.30;0.30;;;23.30;99.90;;;;;;5083331;28;20210;-69
2021/07/05 09:44:41;;;;;;;0.38;0.38;;;23.40;99.90;;;;;;5085920;28;20219;-72
2021/07/05 09:47:15;;;;;;;0.30;0.30;;;23.40;99.90;;;;;;5083562;28;20583;-71
2021/07/05 09:49:40;;;;;;;0.65;0.32;;;23.60;99.90;;;;;;5079759;28;20226;-70
2021/07/05 09:52:16;;;;;;;0.28;0.25;;;23.70;99.90;;;;;;5084762;28;20224;-69
2021/07/05 09:54:44;;;;;;;0.47;0.47;;;24.00;99.90;;;;;;5083996;28;20612;-70
2021/07/05 09:57:30;;;;;;;0.30;0.30;;;24.20;99.90;;;;;;5078413;28;20255;-70
2021/07/05 10:00:05;;;;;;;0.20;0.20;;;24.70;99.90;;;;;;5058009;28;20549;-70
2021/07/05 10:02:30;;;;;;;1.52;0.63;;;25.10;99.90;;;;;;5084585;28;20307;-68
2021/07/05 10:05:08;;;;;;;0.63;0.57;;;25.10;99.90;;;;;;5077273;28;20307;-70
2021/07/05 10:07:34;;;;;;;0.40;0.40;;;25.10;99.90;;;;;;5060962;28;20204;-68
2021/07/05 10:10:08;;;;;;;0.43;0.43;;;25.30;99.90;;;;;;5055642;28;20204;-69
2021/07/05 10:12:34;;;;;;;0.65;0.65;;;25.30;99.90;;;;;;5079667;28;20334;-69
2021/07/05 10:15:09;;;;;;;1.25;0.65;;;25.50;99.90;;;;;;5075107;28;20614;-70
2021/07/05 10:17:40;;;;;;;0.30;0.30;;;25.90;99.90;;;;;;5083377;28;20522;-67
2021/07/05 10:20:37;;;;;;;0.55;0.55;;;25.70;99.90;;;;;;5081771;28;20712;-70
2021/07/05 10:23:07;;;;;;;0.52;0.50;;;25.20;99.90;;;;;;5070277;28;20295;-70
2021/07/05 10:25:36;;;;;;;1.52;0.95;;;25.30;99.90;;;;;;5076045;28;20596;-70
2021/07/05 10:28:04;;;;;;;0.55;0.40;;;25.30;99.90;;;;;;5075266;28;20461;-71
2021/07/05 10:30:32;;;;;;;0.95;0.47;;;25.70;99.90;;;;;;5077900;28;20318;-70
2021/07/05 10:32:57;;;;;;;0.93;0.63;;;25.90;99.90;;;;;;5084145;28;20203;-70
2021/07/05 10:35:37;;;;;;;1.27;0.60;;;26.20;99.90;;;;;;5080630;28;20192;-71
2021/07/05 10:38:11;;;;;;;0.32;0.32;;;25.90;99.90;;;;;;5079443;28;20196;-71
2021/07/05 10:40:49;;;;;;;0.47;0.47;;;25.70;99.90;;;;;;5085506;28;20196;-69
2021/07/05 10:43:17;;;;;;;0.47;0.47;;;25.80;99.90;;;;;;5085032;28;20196;-68
2021/07/05 10:45:48;;;;;;;1.17;0.68;;;25.50;99.90;;;;;;5084433;28;20195;-70
2021/07/05 10:48:36;;;;;;;0.30;0.30;;;25.80;99.90;;;;;;5085579;28;20670;-69
2021/07/05 10:51:03;;;;;;;0.65;0.55;;;25.90;99.90;;;;;;5079185;28;20203;-68
2021/07/05 10:53:32;;;;;;;0.20;0.20;;;26.20;99.90;;;;;;5066623;28;20198;-71
2021/07/05 10:56:00;;;;;;;0.90;0.85;;;26.60;99.90;;;;;;5081603;28;20199;-68
2021/07/05 10:58:28;;;;;;;0.28;0.28;;;26.90;99.90;;;;;;5081508;28;20674;-70
2021/07/05 11:00:56;;;;;;;0.77;0.77;;;27.10;99.90;;;;;;5084987;28;20207;-71
2021/07/05 11:03:37;;;;;;;0.40;0.20;;;27.00;99.90;;;;;;5080591;28;20220;-68
2021/07/05 11:06:11;;;;;;;4.68;0.50;;;27.20;99.90;;;;;;5078151;28;20665;-69
2021/07/05 11:08:42;;;;;;;0.50;0.50;;;27.70;99.90;;;;;;5082254;28;20204;-69
2021/07/05 11:11:10;;;;;;;0.47;0.43;;;28.30;99.90;;;;;;5085870;28;20202;-68
2021/07/05 11:13:37;;;;;;;0.30;0.30;;;29.10;99.90;;;;;;5067573;28;20203;-70
2021/07/05 11:16:04;;;;;;;0.30;0.30;;;29.30;99.90;;;;;;5057247;28;20210;-68
2021/07/05 11:18:36;;;;;;;0.40;0.40;;;29.30;99.90;;;;;;5075209;28;20192;-71
2021/07/05 11:21:06;;;;;;;0.55;0.40;;;29.20;99.90;;;;;;5084661;28;20195;-69
2021/07/05 11:24:04;;;;;;;0.20;0.20;;;28.90;99.90;;;;;;5085034;28;20191;-69
2021/07/05 11:26:36;;;;;;;0.38;0.38;;;29.10;99.90;;;;;;5074245;28;20188;-69
2021/07/05 11:29:13;;;;;;;0.30;0.30;;;28.50;99.90;;;;;;5081517;28;20271;-68
2021/07/05 11:31:48;;;;;;;0.35;0.35;;;28.50;99.90;;;;;;5081884;28;20207;-70
2021/07/05 11:34:37;;;;;;;0.30;0.22;;;28.60;99.90;;;;;;5079562;28;20674;-69
2021/07/05 11:37:12;;;;;;;0.65;0.57;;;28.30;99.90;;;;;;5083113;28;20817;-69
2021/07/05 11:39:43;;;;;;;1.65;0.55;;;28.00;99.90;;;;;;5080877;28;20338;-69
2021/07/05 11:42:11;;;;;;;0.38;0.35;;;28.20;99.90;;;;;;5085025;28;20195;-68
2021/07/05 11:44:53;;;;;;;0.88;0.40;;;28.20;99.90;;;;;;5064563;28;20246;-70
2021/07/05 11:47:37;;;;;;;0.75;0.45;;;28.60;99.90;;;;;;5082638;28;20274;-69
2021/07/05 11:50:21;;;;;;;0.25;0.25;;;29.00;99.90;;;;;;5082638;28;20675;-70
2021/07/05 11:52:48;;;;;;;0.22;0.22;;;29.30;99.90;;;;;;5083160;28;20594;-69
2021/07/05 11:55:15;;;;;;;0.10;0.10;;;29.20;99.90;;;;;;5085335;28;20249;-70
2021/07/05 11:57:52;;;;;;;0.35;0.35;;;29.50;99.90;;;;;;5081297;28;20199;-69
2021/07/05 12:00:26;;;;;;;0.65;0.40;;;29.30;99.90;;;;;;5075921;28;20198;-71
2021/07/05 12:03:05;;;;;;;3.15;0.93;;;29.00;99.90;;;;;;5081830;28;20200;-69
2021/07/05 12:05:32;;;;;;;0.73;0.20;;;28.70;99.90;;;;;;5077536;28;20231;-69
2021/07/05 12:08:09;;;;;;;0.30;0.30;;;28.50;99.90;;;;;;5084458;28;20203;-69
2021/07/05 12:10:37;;;;;;;0.30;0.30;;;28.20;99.90;;;;;;5062173;28;20294;-69
2021/07/05 12:13:15;;;;;;;0.65;0.50;;;28.00;99.90;;;;;;5076123;28;20187;-70
2021/07/05 12:15:52;;;;;;;0.75;0.68;;;28.00;99.90;;;;;;5061297;28;20218;-70
2021/07/05 12:18:18;;;;;;;0.32;0.32;;;27.80;99.90;;;;;;5078525;28;20202;-69
2021/07/05 12:20:44;;;;;;;0.20;0.20;;;27.80;99.90;;;;;;5088416;28;20928;-69
2021/07/05 12:23:14;;;;;;;1.00;0.60;;;27.50;99.90;;;;;;5087668;28;20210;-70
2021/07/05 12:25:43;;;;;;;1.40;0.82;;;27.00;99.90;;;;;;5068724;28;20227;-69
2021/07/05 12:28:11;;;;;;;1.55;0.95;;;26.70;99.90;;;;;;5079934;28;20196;-71
2021/07/05 12:30:38;;;;;;;0.40;0.40;;;26.50;99.90;;;;;;5086012;28;20318;-70
2021/07/05 12:33:07;;;;;;;1.98;0.65;;;26.60;99.90;;;;;;5081364;28;20244;-70
2021/07/05 12:35:36;;;;;;;0.93;0.55;;;26.80;99.90;;;;;;5079940;28;20199;-70
2021/07/05 12:38:03;;;;;;;1.13;0.85;;;26.70;99.90;;;;;;5084027;28;20189;-69
2021/07/05 12:40:31;;;;;;;1.42;0.60;;;27.10;99.90;;;;;;5065637;28;20225;-70
2021/07/05 12:42:57;;;;;;;0.20;0.20;;;27.50;99.90;;;;;;5084338;28;20215;-70
2021/07/05 12:45:30;;;;;;;4.68;0.80;;;28.20;99.90;;;;;;5063567;28;20200;-69
2021/07/05 12:48:00;;;;;;;0.30;0.30;;;29.10;99.90;;;;;;5082943;28;20196;-70
2021/07/05 12:50:35;;;;;;;1.13;0.93;;;29.80;99.90;;;;;;5082828;28;20200;-69
2021/07/05 12:53:17;;;;;;;0.40;0.30;;;29.70;99.90;;;;;;5081962;28;20738;-71
2021/07/05 12:55:49;;;;;;;0.50;0.50;;;29.30;99.90;;;;;;5081176;28;20635;-70